createdAt,value
2019-02-07T00:02:20.746Z,84.75
2019-02-07T00:07:24.790Z,85.19
2019-02-07T00:12:28.864Z,85.66
2019-02-07T00:17:33.220Z,85.70
2019-02-07T00:22:39.214Z,83.18
2019-02-07T00:27:43.271Z,82.66
2019-02-07T00:32:47.591Z,82.48
2019-02-07T00:37:52.720Z,81.10
2019-02-07T00:42:56.778Z,79.78
2019-02-07T00:48:00.836Z,80.71
2019-02-07T00:53:04.883Z,81.38
2019-02-07T00:58:10.096Z,81.55
2019-02-07T01:03:14.214Z,80.82
2019-02-07T01:08:18.945Z,81.25
2019-02-07T01:13:23.051Z,80.47
2019-02-07T01:18:27.047Z,80.58
2019-02-07T01:23:31.126Z,78.98
2019-02-07T01:28:35.149Z,79.51
2019-02-07T01:33:39.164Z,79.39
2019-02-07T01:38:43.507Z,79.98
2019-02-07T01:43:47.595Z,79.92
2019-02-07T01:48:53.121Z,80.65
2019-02-07T01:53:57.945Z,81.73
2019-02-07T01:59:02.029Z,82.27
2019-02-07T02:04:06.112Z,83.72
2019-02-07T02:09:10.974Z,83.42
2019-02-07T02:14:15.939Z,83.81
2019-02-07T02:19:20.016Z,84.87
2019-02-07T02:24:24.389Z,85.80
2019-02-07T02:29:28.447Z,84.51
2019-02-07T02:34:32.578Z,84.72
2019-02-07T02:39:36.634Z,85.70
2019-02-07T02:44:40.666Z,87.26
2019-02-07T02:49:44.691Z,87.01
2019-02-07T02:54:48.802Z,86.00
2019-02-07T02:59:53.838Z,86.24
2019-02-07T03:04:57.909Z,86.44
2019-02-07T03:10:01.961Z,86.89
2019-02-07T03:15:07.874Z,86.43
2019-02-07T03:20:12.216Z,86.18
2019-02-07T03:25:16.278Z,83.61
2019-02-07T03:30:20.319Z,84.72
2019-02-07T03:35:24.517Z,85.73
2019-02-07T03:40:28.629Z,86.43
2019-02-07T03:45:32.704Z,86.83
2019-02-07T03:50:36.772Z,87.94
2019-02-07T03:55:40.842Z,88.84
2019-02-07T04:00:44.891Z,89.39
2019-02-07T04:05:48.989Z,89.19
2019-02-07T04:10:53.357Z,88.68
2019-02-07T04:15:57.386Z,88.32
2019-02-07T04:21:01.493Z,88.33
2019-02-07T04:26:05.494Z,87.78
2019-02-07T04:31:09.860Z,86.51
2019-02-07T04:36:13.901Z,85.30
2019-02-07T04:41:17.992Z,85.28
2019-02-07T04:46:27.107Z,84.63
2019-02-07T04:51:28.029Z,84.70
2019-02-07T04:56:32.189Z,84.52
2019-02-07T05:01:36.562Z,83.88
2019-02-07T05:06:40.680Z,83.43
2019-02-07T05:11:45.273Z,80.87
2019-02-07T05:16:49.347Z,80.38
2019-02-07T05:21:53.421Z,80.25
2019-02-07T05:26:57.509Z,78.45
2019-02-07T05:32:01.851Z,78.06
2019-02-07T05:37:06.019Z,76.97
2019-02-07T05:42:11.040Z,77.94
2019-02-07T05:47:15.528Z,78.16
2019-02-07T05:52:19.946Z,77.19
2019-02-07T05:57:24.912Z,77.50
2019-02-07T06:02:29.885Z,77.91
2019-02-07T06:07:34.057Z,77.08
2019-02-07T06:12:38.462Z,76.95
2019-02-07T06:17:42.529Z,76.32
2019-02-07T06:22:46.825Z,75.39
2019-02-07T06:27:50.914Z,75.06
2019-02-07T06:32:55.029Z,75.07
2019-02-07T06:37:59.126Z,74.78
2019-02-07T06:43:03.238Z,74.09
2019-02-07T06:48:07.473Z,74.09
2019-02-07T06:53:11.623Z,74.44
2019-02-07T06:58:15.941Z,74.34
2019-02-07T07:03:20.319Z,74.05
2019-02-07T07:08:24.376Z,73.62
2019-02-07T07:13:28.803Z,73.33
2019-02-07T07:18:32.879Z,72.91
2019-02-07T07:23:36.928Z,73.50
2019-02-07T07:28:40.995Z,72.95
2019-02-07T07:33:45.112Z,72.29
2019-02-07T07:38:49.257Z,71.41
2019-02-07T07:43:53.336Z,71.49
2019-02-07T07:48:58.185Z,71.54
2019-02-07T07:54:02.547Z,71.24
2019-02-07T07:59:24.523Z,71.78
2019-02-07T08:04:37.798Z,73.02
2019-02-07T08:09:41.896Z,72.00
2019-02-07T08:14:46.311Z,71.71
2019-02-07T08:19:50.389Z,72.70
2019-02-07T08:24:54.443Z,72.17
2019-02-07T08:29:58.580Z,70.88
2019-02-07T08:35:03.080Z,70.68
2019-02-07T08:40:08.981Z,70.66
2019-02-07T08:45:13.248Z,70.59
2019-02-07T08:50:17.850Z,69.97
2019-02-07T08:55:22.117Z,69.32
2019-02-07T09:00:26.115Z,70.19
2019-02-07T09:05:30.708Z,69.79
2019-02-07T09:10:35.100Z,69.49
2019-02-07T09:15:39.651Z,69.83
2019-02-07T09:20:44.280Z,69.31
2019-02-07T09:25:48.671Z,68.86
2019-02-07T09:30:52.826Z,66.92
2019-02-07T09:36:04.907Z,64.44
2019-02-07T09:41:02.704Z,63.60
2019-02-07T09:46:06.834Z,63.02
2019-02-07T09:51:11.060Z,61.83
2019-02-07T09:56:15.490Z,61.01
2019-02-07T10:01:19.556Z,60.92
2019-02-07T10:06:23.613Z,61.10
2019-02-07T10:11:27.787Z,59.65
2019-02-07T10:16:31.948Z,58.79
2019-02-07T10:21:36.536Z,59.13
2019-02-07T10:26:41.364Z,57.88
2019-02-07T10:31:45.749Z,55.07
2019-02-07T10:36:50.115Z,52.59
2019-02-07T10:41:54.240Z,51.83
2019-02-07T10:46:59.822Z,50.68
2019-02-07T10:52:03.995Z,50.54
2019-02-07T10:57:08.306Z,50.53
2019-02-07T11:02:13.866Z,50.79
2019-02-07T11:07:18.038Z,50.66
2019-02-07T11:12:22.249Z,50.38
2019-02-07T11:17:26.288Z,51.39
2019-02-07T11:22:30.708Z,51.09
2019-02-07T11:27:34.699Z,51.84
2019-02-07T11:32:39.230Z,51.72
2019-02-07T11:37:43.395Z,52.36
2019-02-07T11:42:47.854Z,52.28
2019-02-07T11:47:52.165Z,51.66
2019-02-07T11:52:56.230Z,50.99
2019-02-07T11:58:00.300Z,52.67
2019-02-07T12:03:04.562Z,52.99
2019-02-07T12:08:09.051Z,52.69
2019-02-07T12:13:13.148Z,52.99
2019-02-07T12:18:19.068Z,53.95
2019-02-07T12:23:23.135Z,54.66
2019-02-07T12:28:27.240Z,55.85
2019-02-07T12:33:31.631Z,56.22
2019-02-07T12:38:36.812Z,56.22
2019-02-07T12:43:42.405Z,56.35
2019-02-07T12:48:48.209Z,56.98
2019-02-07T12:53:52.296Z,55.78
2019-02-07T12:58:56.444Z,55.98
2019-02-07T13:04:01.106Z,55.32
2019-02-07T13:09:09.485Z,55.69
2019-02-07T13:14:13.584Z,56.22
2019-02-07T13:19:17.867Z,56.13
2019-02-07T13:24:22.035Z,55.69
2019-02-07T13:29:26.219Z,55.06
2019-02-07T13:34:30.789Z,57.02
2019-02-07T13:39:37.551Z,56.72
2019-02-07T13:44:40.661Z,56.16
2019-02-07T13:49:51.661Z,57.75
2019-02-07T13:54:53.739Z,57.97
2019-02-07T13:59:57.930Z,58.05
2019-02-07T14:05:02.047Z,57.91
2019-02-07T14:10:07.294Z,58.04
2019-02-07T14:15:13.670Z,58.95
2019-02-07T14:20:18.050Z,63.09
2019-02-07T14:25:22.591Z,64.63
2019-02-07T14:30:27.732Z,69.12
2019-02-07T14:35:37.722Z,67.91
2019-02-07T14:40:42.548Z,69.26
2019-02-07T14:45:46.688Z,66.75
2019-02-07T14:50:51.469Z,67.94
2019-02-07T14:55:55.679Z,67.42
2019-02-07T15:00:59.722Z,67.94
2019-02-07T15:06:04.227Z,67.19
2019-02-07T15:11:08.247Z,67.35
2019-02-07T15:16:12.301Z,68.63
2019-02-07T15:21:16.433Z,68.60
2019-02-07T15:26:20.463Z,68.50
2019-02-07T15:31:24.916Z,68.76
2019-02-07T15:36:29.002Z,68.97
2019-02-07T15:41:33.140Z,67.96
2019-02-07T15:46:37.562Z,69.17
2019-02-07T15:51:41.726Z,68.34
2019-02-07T15:56:45.771Z,67.57
2019-02-07T16:01:49.816Z,69.83
2019-02-07T16:06:53.989Z,69.10
2019-02-07T16:11:58.443Z,70.60
2019-02-07T16:17:02.492Z,71.53
2019-02-07T16:22:06.614Z,72.60
2019-02-07T16:27:10.665Z,72.93
2019-02-07T16:32:15.087Z,73.48
2019-02-07T16:37:19.176Z,74.10
2019-02-07T16:42:23.656Z,73.43
2019-02-07T16:47:27.897Z,74.24
2019-02-07T16:52:31.950Z,74.50
2019-02-07T16:57:36.056Z,75.41
2019-02-07T17:02:40.180Z,73.67
2019-02-07T17:07:44.607Z,75.08
2019-02-07T17:12:48.675Z,75.62
2019-02-07T17:17:52.735Z,76.83
2019-02-07T17:22:57.212Z,78.50
2019-02-07T17:28:01.483Z,79.53
2019-02-07T17:33:05.880Z,78.81
2019-02-07T17:38:10.019Z,79.60
2019-02-07T17:43:14.117Z,79.75
2019-02-07T17:48:18.533Z,80.68
2019-02-07T17:53:22.653Z,80.91
2019-02-07T17:58:27.294Z,81.15
2019-02-07T18:03:31.978Z,81.55
2019-02-07T18:08:36.027Z,82.61
2019-02-07T18:13:40.165Z,84.36
2019-02-07T18:18:48.573Z,86.01
2019-02-07T18:23:52.837Z,86.89
2019-02-07T18:28:58.872Z,88.82
2019-02-07T18:34:03.498Z,90.02
2019-02-07T18:39:09.067Z,90.11
2019-02-07T18:44:14.004Z,90.55
2019-02-07T18:49:23.196Z,91.21
2019-02-07T18:54:28.300Z,91.85
2019-02-07T18:59:34.412Z,91.85
2019-02-07T19:04:38.847Z,90.62
2019-02-07T19:09:43.031Z,91.15
2019-02-07T19:14:47.310Z,90.87
2019-02-07T19:19:55.719Z,91.65
2019-02-07T19:25:00.090Z,92.04
2019-02-07T19:30:07.584Z,92.03
2019-02-07T19:35:12.240Z,91.95
2019-02-07T19:40:16.754Z,93.40
2019-02-07T19:45:21.451Z,94.66
2019-02-07T19:50:25.860Z,95.72
2019-02-07T19:55:30.013Z,96.73
2019-02-07T20:00:34.504Z,97.86
2019-02-07T20:05:41.172Z,97.44
2019-02-07T20:10:45.429Z,97.89
2019-02-07T20:15:49.781Z,97.33
2019-02-07T20:20:53.908Z,96.41
2019-02-07T20:25:58.160Z,96.18
2019-02-07T20:31:02.214Z,97.68
2019-02-07T20:36:06.260Z,97.88
2019-02-07T20:41:10.380Z,98.28
2019-02-07T20:46:14.793Z,98.49
2019-02-07T20:51:19.111Z,99.09
2019-02-07T20:56:23.476Z,98.36
2019-02-07T21:01:27.559Z,98.54
2019-02-07T21:06:31.730Z,98.23
2019-02-07T21:11:36.073Z,97.70
2019-02-07T21:16:40.134Z,97.57
2019-02-07T21:21:44.237Z,96.43
2019-02-07T21:26:48.277Z,96.09
2019-02-07T21:31:52.584Z,97.09
2019-02-07T21:36:56.678Z,97.15
2019-02-07T21:42:00.752Z,96.50
2019-02-07T21:47:04.951Z,96.41
2019-02-07T21:52:09.450Z,95.85
2019-02-07T21:57:13.708Z,95.79
2019-02-07T22:02:17.748Z,95.90
2019-02-07T22:07:21.830Z,96.57
2019-02-07T22:12:25.896Z,96.09
2019-02-07T22:17:29.988Z,96.34
2019-02-07T22:22:34.197Z,96.19
2019-02-07T22:27:38.231Z,96.84
2019-02-07T22:32:42.280Z,96.84
2019-02-07T22:37:46.318Z,97.37
2019-02-07T22:42:50.743Z,96.80
2019-02-07T22:47:55.079Z,97.72
2019-02-07T22:52:59.764Z,98.30
2019-02-07T22:58:04.912Z,99.19
2019-02-07T23:03:09.257Z,98.91
2019-02-07T23:08:14.264Z,99.09
2019-02-07T23:13:18.712Z,99.13
2019-02-07T23:18:23.197Z,98.55
2019-02-07T23:23:27.284Z,98.69
2019-02-07T23:28:31.331Z,98.92
2019-02-07T23:33:35.457Z,98.81
2019-02-07T23:38:39.675Z,98.81
2019-02-07T23:43:46.227Z,98.88
2019-02-07T23:48:49.794Z,98.26
2019-02-07T23:53:53.879Z,97.74
2019-02-07T23:58:57.892Z,97.61
